sensor_id;sensor_type;location;lat;lon;timestamp;pressure;altitude;pressure_sealevel;temperature;humidity
60465;BME280;46314;52.392;9.758;2023-07-02T00:01:48;99785.75;;;19.80;78.66
60465;BME280;46314;52.392;9.758;2023-07-02T00:04:15;99789.75;;;19.75;77.81
60465;BME280;46314;52.392;9.758;2023-07-02T00:06:42;99790.94;;;19.74;77.80
60465;BME280;46314;52.392;9.758;2023-07-02T00:09:09;99784.28;;;18.42;82.67
60465;BME280;46314;52.392;9.758;2023-07-02T00:11:36;99776.22;;;19.54;80.05
60465;BME280;46314;52.392;9.758;2023-07-02T00:14:04;99779.09;;;19.95;77.63
60465;BME280;46314;52.392;9.758;2023-07-02T00:16:31;99773.47;;;18.44;85.07
60465;BME280;46314;52.392;9.758;2023-07-02T00:18:58;99773.53;;;18.74;83.55
60465;BME280;46314;52.392;9.758;2023-07-02T00:21:24;99783.13;;;19.60;79.74
60465;BME280;46314;52.392;9.758;2023-07-02T00:23:51;99790.13;;;19.74;78.88
60465;BME280;46314;52.392;9.758;2023-07-02T00:26:17;99791.59;;;19.64;78.57
60465;BME280;46314;52.392;9.758;2023-07-02T00:28:43;99789.63;;;20.02;76.33
60465;BME280;46314;52.392;9.758;2023-07-02T00:31:11;99791.63;;;20.05;76.47
60465;BME280;46314;52.392;9.758;2023-07-02T00:33:38;99792.63;;;19.18;79.60
60465;BME280;46314;52.392;9.758;2023-07-02T00:36:04;99801.13;;;19.86;77.10
60465;BME280;46314;52.392;9.758;2023-07-02T00:38:31;99792.19;;;19.46;77.69
60465;BME280;46314;52.392;9.758;2023-07-02T00:40:57;99792.78;;;19.63;77.20
60465;BME280;46314;52.392;9.758;2023-07-02T00:43:24;99792.34;;;19.27;76.02
60465;BME280;46314;52.392;9.758;2023-07-02T00:45:50;99786.41;;;19.32;78.54
60465;BME280;46314;52.392;9.758;2023-07-02T00:48:18;99794.06;;;19.35;76.63
60465;BME280;46314;52.392;9.758;2023-07-02T00:50:45;99799.81;;;19.46;77.33
60465;BME280;46314;52.392;9.758;2023-07-02T00:53:12;99790.44;;;18.78;77.59
60465;BME280;46314;52.392;9.758;2023-07-02T00:55:39;99795.53;;;19.25;76.53
60465;BME280;46314;52.392;9.758;2023-07-02T00:58:05;99787.63;;;19.35;75.55
60465;BME280;46314;52.392;9.758;2023-07-02T01:00:32;99780.56;;;19.14;75.73
60465;BME280;46314;52.392;9.758;2023-07-02T01:02:58;99792.16;;;19.13;76.59
60465;BME280;46314;52.392;9.758;2023-07-02T01:05:28;99783.22;;;19.03;76.07
60465;BME280;46314;52.392;9.758;2023-07-02T01:07:55;99777.56;;;17.38;84.46
60465;BME280;46314;52.392;9.758;2023-07-02T01:10:21;99783.78;;;17.90;83.46
60465;BME280;46314;52.392;9.758;2023-07-02T01:12:48;99780.97;;;18.13;81.20
60465;BME280;46314;52.392;9.758;2023-07-02T01:15:15;99778.72;;;17.56;84.08
60465;BME280;46314;52.392;9.758;2023-07-02T01:17:42;99768.94;;;17.89;81.53
60465;BME280;46314;52.392;9.758;2023-07-02T01:20:11;99767.63;;;18.29;80.29
60465;BME280;46314;52.392;9.758;2023-07-02T01:22:38;99761.41;;;17.74;82.02
60465;BME280;46314;52.392;9.758;2023-07-02T01:25:06;99769.75;;;18.13;82.79
60465;BME280;46314;52.392;9.758;2023-07-02T01:27:33;99763.31;;;18.62;80.33
60465;BME280;46314;52.392;9.758;2023-07-02T01:29:59;99755.56;;;17.83;82.14
60465;BME280;46314;52.392;9.758;2023-07-02T01:32:26;99755.91;;;17.58;83.09
60465;BME280;46314;52.392;9.758;2023-07-02T01:34:52;99765.16;;;17.39;83.36
60465;BME280;46314;52.392;9.758;2023-07-02T01:37:20;99777.00;;;18.14;80.31
60465;BME280;46314;52.392;9.758;2023-07-02T01:39:47;99772.50;;;18.09;78.86
60465;BME280;46314;52.392;9.758;2023-07-02T01:42:15;99766.28;;;18.46;77.57
60465;BME280;46314;52.392;9.758;2023-07-02T01:44:41;99780.22;;;18.39;79.13
60465;BME280;46314;52.392;9.758;2023-07-02T01:47:08;99779.16;;;18.74;77.46
60465;BME280;46314;52.392;9.758;2023-07-02T01:49:35;99781.81;;;18.63;77.52
60465;BME280;46314;52.392;9.758;2023-07-02T01:52:01;99783.78;;;18.86;76.01
60465;BME280;46314;52.392;9.758;2023-07-02T01:54:30;99778.31;;;18.70;76.29
60465;BME280;46314;52.392;9.758;2023-07-02T01:56:57;99781.47;;;18.42;77.97
60465;BME280;46314;52.392;9.758;2023-07-02T01:59:24;99785.16;;;18.72;75.90
60465;BME280;46314;52.392;9.758;2023-07-02T02:01:51;99781.75;;;18.60;77.00
60465;BME280;46314;52.392;9.758;2023-07-02T02:04:18;99786.78;;;18.24;78.22
60465;BME280;46314;52.392;9.758;2023-07-02T02:06:44;99794.88;;;18.29;79.43
60465;BME280;46314;52.392;9.758;2023-07-02T02:09:11;99788.72;;;18.69;75.91
60465;BME280;46314;52.392;9.758;2023-07-02T02:11:41;99803.75;;;18.54;76.63
60465;BME280;46314;52.392;9.758;2023-07-02T02:14:08;99792.31;;;18.20;76.96
60465;BME280;46314;52.392;9.758;2023-07-02T02:16:34;99803.56;;;18.93;75.30
60465;BME280;46314;52.392;9.758;2023-07-02T02:19:01;99790.75;;;18.72;76.57
60465;BME280;46314;52.392;9.758;2023-07-02T02:21:28;99798.22;;;19.15;74.26
60465;BME280;46314;52.392;9.758;2023-07-02T02:23:55;99798.13;;;18.31;79.24
60465;BME280;46314;52.392;9.758;2023-07-02T02:26:22;99794.53;;;18.57;76.47
60465;BME280;46314;52.392;9.758;2023-07-02T02:28:50;99802.66;;;19.16;74.12
60465;BME280;46314;52.392;9.758;2023-07-02T02:31:17;99797.03;;;18.62;76.06
60465;BME280;46314;52.392;9.758;2023-07-02T02:33:44;99791.56;;;18.46;76.93
60465;BME280;46314;52.392;9.758;2023-07-02T02:36:10;99793.06;;;17.94;80.08
60465;BME280;46314;52.392;9.758;2023-07-02T02:38:37;99799.06;;;18.39;77.69
60465;BME280;46314;52.392;9.758;2023-07-02T02:41:03;99787.78;;;18.62;76.89
60465;BME280;46314;52.392;9.758;2023-07-02T02:43:30;99795.63;;;18.76;78.11
60465;BME280;46314;52.392;9.758;2023-07-02T02:45:57;99795.59;;;19.29;75.72
60465;BME280;46314;52.392;9.758;2023-07-02T02:48:24;99800.00;;;18.96;75.77
60465;BME280;46314;52.392;9.758;2023-07-02T02:50:50;99797.19;;;18.96;76.54
60465;BME280;46314;52.392;9.758;2023-07-02T02:53:17;99793.06;;;18.90;75.44
60465;BME280;46314;52.392;9.758;2023-07-02T02:55:44;99802.84;;;19.30;74.12
60465;BME280;46314;52.392;9.758;2023-07-02T02:58:10;99796.00;;;17.82;81.91
60465;BME280;46314;52.392;9.758;2023-07-02T03:00:37;99794.50;;;18.30;80.72
60465;BME280;46314;52.392;9.758;2023-07-02T03:03:05;99796.69;;;17.94;81.40
60465;BME280;46314;52.392;9.758;2023-07-02T03:05:35;99799.56;;;18.44;79.48
60465;BME280;46314;52.392;9.758;2023-07-02T03:08:01;99789.66;;;19.04;77.97
60465;BME280;46314;52.392;9.758;2023-07-02T03:10:28;99788.41;;;19.32;75.72
60465;BME280;46314;52.392;9.758;2023-07-02T03:12:54;99801.34;;;19.40;74.71
60465;BME280;46314;52.392;9.758;2023-07-02T03:15:22;99804.22;;;19.13;76.81
60465;BME280;46314;52.392;9.758;2023-07-02T03:17:49;99794.84;;;19.32;74.83
60465;BME280;46314;52.392;9.758;2023-07-02T03:20:18;99796.13;;;18.54;78.64
60465;BME280;46314;52.392;9.758;2023-07-02T03:22:44;99795.53;;;18.95;76.92
60465;BME280;46314;52.392;9.758;2023-07-02T03:25:11;99801.63;;;19.31;76.06
60465;BME280;46314;52.392;9.758;2023-07-02T03:27:37;99799.78;;;19.42;75.04
60465;BME280;46314;52.392;9.758;2023-07-02T03:30:05;99805.41;;;19.42;74.88
60465;BME280;46314;52.392;9.758;2023-07-02T03:32:31;99799.59;;;19.28;75.45
60465;BME280;46314;52.392;9.758;2023-07-02T03:34:58;99800.84;;;19.00;76.06
60465;BME280;46314;52.392;9.758;2023-07-02T03:37:26;99797.19;;;18.73;78.19
60465;BME280;46314;52.392;9.758;2023-07-02T03:39:52;99791.63;;;19.34;75.85
60465;BME280;46314;52.392;9.758;2023-07-02T03:42:19;99797.22;;;19.30;75.75
60465;BME280;46314;52.392;9.758;2023-07-02T03:44:45;99803.81;;;19.45;75.02
60465;BME280;46314;52.392;9.758;2023-07-02T03:47:11;99796.25;;;19.83;74.35
60465;BME280;46314;52.392;9.758;2023-07-02T03:49:38;99795.53;;;18.95;78.26
60465;BME280;46314;52.392;9.758;2023-07-02T03:52:05;99789.78;;;19.15;77.54
60465;BME280;46314;52.392;9.758;2023-07-02T03:54:33;99793.25;;;19.68;75.30
60465;BME280;46314;52.392;9.758;2023-07-02T03:57:00;99801.72;;;19.08;76.75
60465;BME280;46314;52.392;9.758;2023-07-02T03:59:26;99795.25;;;18.50;80.25
60465;BME280;46314;52.392;9.758;2023-07-02T04:01:52;99807.22;;;18.97;79.92
60465;BME280;46314;52.392;9.758;2023-07-02T04:04:19;99805.00;;;19.14;77.69
60465;BME280;46314;52.392;9.758;2023-07-02T04:06:46;99817.22;;;19.55;76.20
60465;BME280;46314;52.392;9.758;2023-07-02T04:09:12;99820.81;;;19.22;77.53
60465;BME280;46314;52.392;9.758;2023-07-02T04:11:40;99825.25;;;17.81;83.42
60465;BME280;46314;52.392;9.758;2023-07-02T04:14:06;99819.97;;;18.68;79.73
60465;BME280;46314;52.392;9.758;2023-07-02T04:16:33;99813.34;;;19.33;76.59
60465;BME280;46314;52.392;9.758;2023-07-02T04:18:59;99813.53;;;19.17;77.80
60465;BME280;46314;52.392;9.758;2023-07-02T04:21:26;99810.69;;;18.64;79.95
60465;BME280;46314;52.392;9.758;2023-07-02T04:23:52;99808.28;;;19.16;78.21
60465;BME280;46314;52.392;9.758;2023-07-02T04:26:20;99805.41;;;19.42;77.62
60465;BME280;46314;52.392;9.758;2023-07-02T04:29:07;99812.34;;;19.82;74.71
60465;BME280;46314;52.392;9.758;2023-07-02T04:31:34;99813.63;;;19.92;73.78
60465;BME280;46314;52.392;9.758;2023-07-02T04:34:00;99812.34;;;19.82;74.42
60465;BME280;46314;52.392;9.758;2023-07-02T04:36:27;99816.84;;;19.91;74.31
60465;BME280;46314;52.392;9.758;2023-07-02T04:38:53;99817.50;;;19.46;76.47
60465;BME280;46314;52.392;9.758;2023-07-02T04:41:20;99813.69;;;19.62;75.54
60465;BME280;46314;52.392;9.758;2023-07-02T04:43:46;99822.16;;;19.32;75.93
60465;BME280;46314;52.392;9.758;2023-07-02T04:46:14;99826.44;;;19.22;75.61
60465;BME280;46314;52.392;9.758;2023-07-02T04:48:41;99834.13;;;19.93;72.31
60465;BME280;46314;52.392;9.758;2023-07-02T04:51:07;99828.84;;;18.93;71.73
60465;BME280;46314;52.392;9.758;2023-07-02T04:53:34;99827.97;;;19.80;69.82
60465;BME280;46314;52.392;9.758;2023-07-02T04:56:00;99830.94;;;19.00;72.81
60465;BME280;46314;52.392;9.758;2023-07-02T04:58:27;99839.72;;;19.25;70.53
60465;BME280;46314;52.392;9.758;2023-07-02T05:00:53;99839.72;;;19.25;68.78
60465;BME280;46314;52.392;9.758;2023-07-02T05:03:21;99846.97;;;19.26;68.76
60465;BME280;46314;52.392;9.758;2023-07-02T05:05:48;99849.97;;;19.71;66.88
60465;BME280;46314;52.392;9.758;2023-07-02T05:08:14;99843.88;;;19.99;66.10
60465;BME280;46314;52.392;9.758;2023-07-02T05:10:41;99843.25;;;19.79;66.87
60465;BME280;46314;52.392;9.758;2023-07-02T05:13:07;99846.50;;;18.94;68.01
60465;BME280;46314;52.392;9.758;2023-07-02T05:15:34;99849.50;;;19.65;67.47
60465;BME280;46314;52.392;9.758;2023-07-02T05:18:00;99845.25;;;19.78;66.23
60465;BME280;46314;52.392;9.758;2023-07-02T05:20:28;99849.00;;;19.59;66.67
60465;BME280;46314;52.392;9.758;2023-07-02T05:22:54;99850.16;;;19.85;66.44
60465;BME280;46314;52.392;9.758;2023-07-02T05:25:21;99854.09;;;20.14;65.48
60465;BME280;46314;52.392;9.758;2023-07-02T05:27:47;99848.66;;;19.64;66.24
60465;BME280;46314;52.392;9.758;2023-07-02T05:30:14;99858.06;;;19.15;68.13
60465;BME280;46314;52.392;9.758;2023-07-02T05:32:42;99855.34;;;20.20;64.79
60465;BME280;46314;52.392;9.758;2023-07-02T05:35:08;99857.22;;;20.47;64.17
60465;BME280;46314;52.392;9.758;2023-07-02T05:37:36;99861.63;;;20.44;64.32
60465;BME280;46314;52.392;9.758;2023-07-02T05:40:03;99849.59;;;20.10;65.68
60465;BME280;46314;52.392;9.758;2023-07-02T05:42:29;99854.84;;;20.11;65.62
60465;BME280;46314;52.392;9.758;2023-07-02T05:44:56;99852.94;;;18.94;69.26
60465;BME280;46314;52.392;9.758;2023-07-02T05:47:22;99853.84;;;19.93;66.35
60465;BME280;46314;52.392;9.758;2023-07-02T05:49:49;99853.81;;;20.27;65.19
60465;BME280;46314;52.392;9.758;2023-07-02T05:52:15;99864.75;;;22.52;57.94
60465;BME280;46314;52.392;9.758;2023-07-02T05:54:43;99876.50;;;28.94;40.61
60465;BME280;46314;52.392;9.758;2023-07-02T05:57:10;99878.38;;;31.96;34.66
60465;BME280;46314;52.392;9.758;2023-07-02T05:59:37;99876.03;;;28.79;38.96
60465;BME280;46314;52.392;9.758;2023-07-02T06:02:04;99890.81;;;31.13;35.84
60465;BME280;46314;52.392;9.758;2023-07-02T06:04:30;99888.34;;;33.53;31.44
60465;BME280;46314;52.392;9.758;2023-07-02T06:06:57;99898.69;;;35.16;29.05
60465;BME280;46314;52.392;9.758;2023-07-02T06:09:23;99889.72;;;35.92;27.05
60465;BME280;46314;52.392;9.758;2023-07-02T06:11:51;99893.19;;;36.55;26.20
60465;BME280;46314;52.392;9.758;2023-07-02T06:14:17;99897.69;;;37.54;24.61
60465;BME280;46314;52.392;9.758;2023-07-02T06:16:44;99899.22;;;38.22;24.34
60465;BME280;46314;52.392;9.758;2023-07-02T06:19:10;99894.06;;;38.05;23.98
60465;BME280;46314;52.392;9.758;2023-07-02T06:21:37;99891.50;;;39.26;22.66
60465;BME280;46314;52.392;9.758;2023-07-02T06:24:04;99899.13;;;39.17;22.27
60465;BME280;46314;52.392;9.758;2023-07-02T06:26:31;99900.34;;;39.54;22.64
60465;BME280;46314;52.392;9.758;2023-07-02T06:28:59;99897.69;;;38.58;22.74
60465;BME280;46314;52.392;9.758;2023-07-02T06:31:26;99892.28;;;37.61;23.98
60465;BME280;46314;52.392;9.758;2023-07-02T06:33:52;99898.16;;;38.51;23.28
60465;BME280;46314;52.392;9.758;2023-07-02T06:36:19;99891.22;;;35.87;25.50
60465;BME280;46314;52.392;9.758;2023-07-02T06:38:46;99895.13;;;35.60;25.97
60465;BME280;46314;52.392;9.758;2023-07-02T06:41:12;99879.28;;;31.83;31.02
60465;BME280;46314;52.392;9.758;2023-07-02T06:43:41;99888.84;;;30.08;34.68
60465;BME280;46314;52.392;9.758;2023-07-02T06:46:11;99885.19;;;26.12;40.53
60465;BME280;46314;52.392;9.758;2023-07-02T06:48:38;99873.13;;;26.58;41.29
60465;BME280;46314;52.392;9.758;2023-07-02T06:51:05;99890.81;;;28.04;37.37
60465;BME280;46314;52.392;9.758;2023-07-02T06:53:31;99892.31;;;27.29;38.93
60465;BME280;46314;52.392;9.758;2023-07-02T06:55:58;99878.97;;;26.20;40.15
60465;BME280;46314;52.392;9.758;2023-07-02T06:58:24;99903.53;;;26.89;38.32
60465;BME280;46314;52.392;9.758;2023-07-02T07:00:51;99895.44;;;27.11;38.32
60465;BME280;46314;52.392;9.758;2023-07-02T07:03:19;99906.34;;;26.11;39.10
60465;BME280;46314;52.392;9.758;2023-07-02T07:05:46;99909.03;;;26.49;38.50
60465;BME280;46314;52.392;9.758;2023-07-02T07:08:13;99910.44;;;26.37;39.69
60465;BME280;46314;52.392;9.758;2023-07-02T07:10:39;99911.53;;;26.97;38.82
60465;BME280;46314;52.392;9.758;2023-07-02T07:13:06;99911.44;;;26.50;40.36
60465;BME280;46314;52.392;9.758;2023-07-02T07:15:36;99908.94;;;24.73;42.54
60465;BME280;46314;52.392;9.758;2023-07-02T07:18:03;99917.19;;;25.47;42.90
60465;BME280;46314;52.392;9.758;2023-07-02T07:20:31;99917.41;;;25.67;42.01
60465;BME280;46314;52.392;9.758;2023-07-02T07:22:58;99923.09;;;24.80;43.08
60465;BME280;46314;52.392;9.758;2023-07-02T07:25:24;99916.16;;;24.14;44.77
60465;BME280;46314;52.392;9.758;2023-07-02T07:27:51;99911.75;;;24.13;44.80
60465;BME280;46314;52.392;9.758;2023-07-02T07:30:19;99922.03;;;23.68;46.23
60465;BME280;46314;52.392;9.758;2023-07-02T07:32:46;99929.50;;;24.88;43.82
60465;BME280;46314;52.392;9.758;2023-07-02T07:35:13;99932.53;;;24.63;44.39
60465;BME280;46314;52.392;9.758;2023-07-02T07:37:41;99936.22;;;24.49;43.76
60465;BME280;46314;52.392;9.758;2023-07-02T07:40:08;99936.66;;;24.44;43.44
60465;BME280;46314;52.392;9.758;2023-07-02T07:42:35;99949.19;;;24.46;43.11
60465;BME280;46314;52.392;9.758;2023-07-02T07:45:02;99926.41;;;23.76;44.29
60465;BME280;46314;52.392;9.758;2023-07-02T07:47:28;99929.53;;;24.17;43.08
60465;BME280;46314;52.392;9.758;2023-07-02T07:49:55;99929.81;;;24.37;43.17
60465;BME280;46314;52.392;9.758;2023-07-02T07:52:22;99935.22;;;24.10;42.37
60465;BME280;46314;52.392;9.758;2023-07-02T07:54:52;99937.91;;;24.39;41.73
60465;BME280;46314;52.392;9.758;2023-07-02T07:57:19;99935.69;;;23.94;43.72
60465;BME280;46314;52.392;9.758;2023-07-02T07:59:46;99956.63;;;24.15;42.68
60465;BME280;46314;52.392;9.758;2023-07-02T08:02:12;99953.56;;;23.80;41.77
60465;BME280;46314;52.392;9.758;2023-07-02T08:04:39;99949.91;;;23.84;41.32
60465;BME280;46314;52.392;9.758;2023-07-02T08:07:06;99951.16;;;23.65;41.78
60465;BME280;46314;52.392;9.758;2023-07-02T08:09:32;99948.34;;;23.57;41.70
60465;BME280;46314;52.392;9.758;2023-07-02T08:12:00;99965.78;;;23.27;43.16
60465;BME280;46314;52.392;9.758;2023-07-02T08:14:27;99977.06;;;23.52;42.22
60465;BME280;46314;52.392;9.758;2023-07-02T08:16:53;99964.47;;;23.71;42.37
60465;BME280;46314;52.392;9.758;2023-07-02T08:19:20;99961.31;;;23.04;43.25
60465;BME280;46314;52.392;9.758;2023-07-02T08:21:46;99953.63;;;23.27;41.60
60465;BME280;46314;52.392;9.758;2023-07-02T08:24:13;99960.00;;;23.85;41.74
60465;BME280;46314;52.392;9.758;2023-07-02T08:26:39;99977.75;;;24.03;40.68
60465;BME280;46314;52.392;9.758;2023-07-02T08:29:08;99972.81;;;24.18;39.62
60465;BME280;46314;52.392;9.758;2023-07-02T08:31:34;99968.53;;;23.67;41.42
60465;BME280;46314;52.392;9.758;2023-07-02T08:34:00;99989.56;;;23.87;40.41
60465;BME280;46314;52.392;9.758;2023-07-02T08:36:27;99974.56;;;23.87;39.45
60465;BME280;46314;52.392;9.758;2023-07-02T08:38:53;99978.94;;;24.06;38.41
60465;BME280;46314;52.392;9.758;2023-07-02T08:41:20;99983.94;;;23.33;40.96
60465;BME280;46314;52.392;9.758;2023-07-02T08:43:47;99979.06;;;23.41;41.19
60465;BME280;46314;52.392;9.758;2023-07-02T08:46:16;99979.88;;;23.59;41.48
60465;BME280;46314;52.392;9.758;2023-07-02T08:48:43;99983.91;;;23.51;40.95
60465;BME280;46314;52.392;9.758;2023-07-02T08:51:09;99984.72;;;22.98;39.66
60465;BME280;46314;52.392;9.758;2023-07-02T08:53:36;99986.72;;;23.69;39.04
60465;BME280;46314;52.392;9.758;2023-07-02T08:56:03;100000.88;;;23.91;39.59
60465;BME280;46314;52.392;9.758;2023-07-02T08:58:30;99996.00;;;23.77;38.32
60465;BME280;46314;52.392;9.758;2023-07-02T09:01:07;99993.59;;;23.75;36.92
60465;BME280;46314;52.392;9.758;2023-07-02T09:03:35;100001.72;;;23.55;37.60
60465;BME280;46314;52.392;9.758;2023-07-02T09:06:02;100006.16;;;23.02;38.94
60465;BME280;46314;52.392;9.758;2023-07-02T09:08:29;99994.81;;;22.99;37.96
60465;BME280;46314;52.392;9.758;2023-07-02T09:11:05;100013.84;;;23.09;39.59
60465;BME280;46314;52.392;9.758;2023-07-02T09:13:41;100021.53;;;23.16;38.66
60465;BME280;46314;52.392;9.758;2023-07-02T09:16:08;100011.44;;;23.54;38.15
60465;BME280;46314;52.392;9.758;2023-07-02T09:18:36;100008.59;;;23.11;38.13
60465;BME280;46314;52.392;9.758;2023-07-02T09:21:02;100005.78;;;23.18;39.57
60465;BME280;46314;52.392;9.758;2023-07-02T09:23:34;100011.81;;;23.02;39.17
60465;BME280;46314;52.392;9.758;2023-07-02T09:26:02;100012.38;;;22.24;39.79
60465;BME280;46314;52.392;9.758;2023-07-02T09:28:28;100013.94;;;22.14;39.37
60465;BME280;46314;52.392;9.758;2023-07-02T09:30:56;100009.28;;;22.47;39.11
60465;BME280;46314;52.392;9.758;2023-07-02T09:33:24;100014.88;;;22.36;40.24
60465;BME280;46314;52.392;9.758;2023-07-02T09:35:52;100015.31;;;22.45;40.14
60465;BME280;46314;52.392;9.758;2023-07-02T09:38:19;100011.03;;;23.45;38.96
60465;BME280;46314;52.392;9.758;2023-07-02T09:40:48;100014.28;;;23.40;38.39
60465;BME280;46314;52.392;9.758;2023-07-02T09:43:16;100006.94;;;22.81;39.93
60465;BME280;46314;52.392;9.758;2023-07-02T09:45:44;100002.56;;;23.31;39.34
60465;BME280;46314;52.392;9.758;2023-07-02T09:48:13;100012.66;;;23.35;39.15
60465;BME280;46314;52.392;9.758;2023-07-02T09:50:40;100019.91;;;23.11;39.95
60465;BME280;46314;52.392;9.758;2023-07-02T09:53:08;100027.59;;;23.21;39.12
60465;BME280;46314;52.392;9.758;2023-07-02T09:55:35;100021.53;;;23.23;38.71
60465;BME280;46314;52.392;9.758;2023-07-02T09:58:02;100012.63;;;23.53;37.92
60465;BME280;46314;52.392;9.758;2023-07-02T10:00:28;100019.88;;;23.72;37.15
60465;BME280;46314;52.392;9.758;2023-07-02T10:02:55;100019.91;;;23.51;36.96
60465;BME280;46314;52.392;9.758;2023-07-02T10:05:25;100029.19;;;23.76;36.35
60465;BME280;46314;52.392;9.758;2023-07-02T10:07:52;100033.69;;;23.38;36.50
60465;BME280;46314;52.392;9.758;2023-07-02T10:10:27;100041.34;;;23.09;37.60
60465;BME280;46314;52.392;9.758;2023-07-02T10:12:54;100046.16;;;22.94;37.38
60465;BME280;46314;52.392;9.758;2023-07-02T10:15:25;100040.94;;;23.21;36.84
60465;BME280;46314;52.392;9.758;2023-07-02T10:17:56;100044.59;;;23.54;36.58
60465;BME280;46314;52.392;9.758;2023-07-02T10:20:34;100032.81;;;23.01;36.77
60465;BME280;46314;52.392;9.758;2023-07-02T10:23:02;100045.34;;;22.97;37.02
60465;BME280;46314;52.392;9.758;2023-07-02T10:25:31;100039.69;;;23.04;37.95
60465;BME280;46314;52.392;9.758;2023-07-02T10:27:58;100040.94;;;23.35;37.83
60465;BME280;46314;52.392;9.758;2023-07-02T10:30:35;100043.38;;;23.51;36.33
60465;BME280;46314;52.392;9.758;2023-07-02T10:33:10;100050.63;;;23.77;36.84
60465;BME280;46314;52.392;9.758;2023-07-02T10:35:36;100057.13;;;23.85;36.73
60465;BME280;46314;52.392;9.758;2023-07-02T10:38:03;100049.84;;;23.66;35.79
60465;BME280;46314;52.392;9.758;2023-07-02T10:40:34;100057.03;;;24.21;35.71
60465;BME280;46314;52.392;9.758;2023-07-02T10:43:01;100060.28;;;24.16;35.23
60465;BME280;46314;52.392;9.758;2023-07-02T10:45:31;100064.38;;;24.00;35.64
60465;BME280;46314;52.392;9.758;2023-07-02T10:47:58;100061.56;;;23.93;35.15
60465;BME280;46314;52.392;9.758;2023-07-02T10:50:26;100067.63;;;23.88;35.14
60465;BME280;46314;52.392;9.758;2023-07-02T10:52:53;100057.84;;;24.18;35.28
60465;BME280;46314;52.392;9.758;2023-07-02T10:55:20;100056.22;;;24.24;35.20
60465;BME280;46314;52.392;9.758;2023-07-02T10:57:49;100064.78;;;23.95;36.00
60465;BME280;46314;52.392;9.758;2023-07-02T11:00:16;100064.81;;;23.52;36.43
60465;BME280;46314;52.392;9.758;2023-07-02T11:02:43;100057.50;;;23.98;36.55
60465;BME280;46314;52.392;9.758;2023-07-02T11:05:10;100066.44;;;23.82;36.59
60465;BME280;46314;52.392;9.758;2023-07-02T11:07:37;100062.75;;;24.07;36.28
60465;BME280;46314;52.392;9.758;2023-07-02T11:10:04;100066.19;;;24.68;35.44
60465;BME280;46314;52.392;9.758;2023-07-02T11:12:32;100058.75;;;24.96;35.26
60465;BME280;46314;52.392;9.758;2023-07-02T11:15:10;100053.59;;;24.73;35.26
60465;BME280;46314;52.392;9.758;2023-07-02T11:17:37;100062.59;;;24.50;35.31
60465;BME280;46314;52.392;9.758;2023-07-02T11:20:05;100062.22;;;24.41;35.58
60465;BME280;46314;52.392;9.758;2023-07-02T11:22:32;100067.13;;;24.33;35.25
60465;BME280;46314;52.392;9.758;2023-07-02T11:25:09;100057.03;;;24.21;36.19
60465;BME280;46314;52.392;9.758;2023-07-02T11:27:36;100055.06;;;24.04;36.85
60465;BME280;46314;52.392;9.758;2023-07-02T11:30:03;100050.66;;;23.38;37.25
60465;BME280;46314;52.392;9.758;2023-07-02T11:32:35;100054.69;;;23.44;37.18
60465;BME280;46314;52.392;9.758;2023-07-02T11:35:02;100085.03;;;23.18;37.49
60465;BME280;46314;52.392;9.758;2023-07-02T11:37:28;100073.31;;;23.52;37.44
60465;BME280;46314;52.392;9.758;2023-07-02T11:39:55;100072.50;;;23.59;36.91
60465;BME280;46314;52.392;9.758;2023-07-02T11:42:21;100076.53;;;23.54;37.24
60465;BME280;46314;52.392;9.758;2023-07-02T11:44:48;100075.72;;;23.79;36.68
60465;BME280;46314;52.392;9.758;2023-07-02T11:47:14;100071.94;;;22.71;39.57
60465;BME280;46314;52.392;9.758;2023-07-02T11:49:42;100073.72;;;23.47;37.78
60465;BME280;46314;52.392;9.758;2023-07-02T11:52:09;100072.88;;;23.72;37.36
60465;BME280;46314;52.392;9.758;2023-07-02T11:54:35;100082.59;;;23.74;37.34
60465;BME280;46314;52.392;9.758;2023-07-02T11:57:02;100081.75;;;23.99;36.13
60465;BME280;46314;52.392;9.758;2023-07-02T11:59:28;100087.03;;;23.75;36.33
60465;BME280;46314;52.392;9.758;2023-07-02T12:01:55;100083.72;;;24.31;35.55
60465;BME280;46314;52.392;9.758;2023-07-02T12:04:21;100074.94;;;23.82;36.63
60465;BME280;46314;52.392;9.758;2023-07-02T12:06:49;100077.34;;;23.94;35.71
60465;BME280;46314;52.392;9.758;2023-07-02T12:09:16;100086.22;;;23.53;36.87
60465;BME280;46314;52.392;9.758;2023-07-02T12:11:42;100079.38;;;23.47;36.69
60465;BME280;46314;52.392;9.758;2023-07-02T12:14:09;100074.50;;;23.22;37.09
60465;BME280;46314;52.392;9.758;2023-07-02T12:16:35;100078.97;;;23.67;36.51
60465;BME280;46314;52.392;9.758;2023-07-02T12:19:02;100076.53;;;23.61;36.67
60465;BME280;46314;52.392;9.758;2023-07-02T12:21:28;100079.59;;;24.50;35.85
60465;BME280;46314;52.392;9.758;2023-07-02T12:23:56;100071.06;;;24.61;35.39
60465;BME280;46314;52.392;9.758;2023-07-02T12:26:22;100080.94;;;24.06;36.48
60465;BME280;46314;52.392;9.758;2023-07-02T12:28:49;100069.97;;;24.26;36.12
60465;BME280;46314;52.392;9.758;2023-07-02T12:31:15;100090.25;;;24.17;35.66
60465;BME280;46314;52.392;9.758;2023-07-02T12:33:42;100088.53;;;24.37;35.07
60465;BME280;46314;52.392;9.758;2023-07-02T12:36:09;100088.50;;;24.48;34.25
60465;BME280;46314;52.392;9.758;2023-07-02T12:38:35;100090.22;;;24.31;35.57
60465;BME280;46314;52.392;9.758;2023-07-02T12:41:03;100091.88;;;23.10;37.42
60465;BME280;46314;52.392;9.758;2023-07-02T12:43:29;100098.34;;;24.04;35.09
60465;BME280;46314;52.392;9.758;2023-07-02T12:45:56;100086.25;;;23.78;35.53
60465;BME280;46314;52.392;9.758;2023-07-02T12:48:22;100101.19;;;23.79;36.18
60465;BME280;46314;52.392;9.758;2023-07-02T12:50:55;100103.06;;;24.68;34.74
60465;BME280;46314;52.392;9.758;2023-07-02T12:53:22;100097.81;;;24.52;35.03
60465;BME280;46314;52.392;9.758;2023-07-02T12:55:48;100102.34;;;24.28;34.55
60465;BME280;46314;52.392;9.758;2023-07-02T12:58:17;100101.47;;;24.49;33.15